sensor_id;sensor_type;location;lat;lon;timestamp;pressure;altitude;pressure_sealevel;temperature;humidity
50282;BME280;36176;51.506;10.272;2023-02-14T00:01:08;101507.72;;;-0.92;100.00
50282;BME280;36176;51.506;10.272;2023-02-14T00:03:35;101507.81;;;-0.89;100.00
50282;BME280;36176;51.506;10.272;2023-02-14T00:06:11;101505.28;;;-0.88;100.00
50282;BME280;36176;51.506;10.272;2023-02-14T00:08:39;101500.13;;;-0.86;100.00
50282;BME280;36176;51.506;10.272;2023-02-14T00:11:06;101508.75;;;-0.87;100.00
50282;BME280;36176;51.506;10.272;2023-02-14T00:13:36;101506.00;;;-0.92;100.00
50282;BME280;36176;51.506;10.272;2023-02-14T00:16:04;101512.88;;;-0.94;100.00
50282;BME280;36176;51.506;10.272;2023-02-14T00:18:31;101510.09;;;-1.00;100.00
50282;BME280;36176;51.506;10.272;2023-02-14T00:21:16;101508.31;;;-1.01;100.00
50282;BME280;36176;51.506;10.272;2023-02-14T00:23:43;101513.56;;;-0.99;100.00
50282;BME280;36176;51.506;10.272;2023-02-14T00:26:13;101510.13;;;-0.98;100.00
50282;BME280;36176;51.506;10.272;2023-02-14T00:28:44;101508.44;;;-0.98;100.00
50282;BME280;36176;51.506;10.272;2023-02-14T00:31:11;101510.09;;;-1.00;100.00
50282;BME280;36176;51.506;10.272;2023-02-14T00:33:38;101510.81;;;-1.04;100.00
50282;BME280;36176;51.506;10.272;2023-02-14T00:36:06;101506.47;;;-1.05;100.00
50282;BME280;36176;51.506;10.272;2023-02-14T00:38:35;101506.34;;;-1.08;100.00
50282;BME280;36176;51.506;10.272;2023-02-14T00:41:02;101501.09;;;-1.10;100.00
50282;BME280;36176;51.506;10.272;2023-02-14T00:43:30;101508.75;;;-1.14;100.00
50282;BME280;36176;51.506;10.272;2023-02-14T00:45:57;101501.59;;;-1.21;100.00
50282;BME280;36176;51.506;10.272;2023-02-14T00:48:24;101503.94;;;-1.29;100.00
50282;BME280;36176;51.506;10.272;2023-02-14T00:50:52;101503.88;;;-1.31;100.00
50282;BME280;36176;51.506;10.272;2023-02-14T00:53:19;101502.94;;;-1.33;100.00
50282;BME280;36176;51.506;10.272;2023-02-14T00:55:46;101498.38;;;-1.40;100.00
50282;BME280;36176;51.506;10.272;2023-02-14T00:58:15;101503.47;;;-1.43;100.00
50282;BME280;36176;51.506;10.272;2023-02-14T01:00:42;101504.09;;;-1.50;100.00
50282;BME280;36176;51.506;10.272;2023-02-14T01:03:08;101504.88;;;-1.53;100.00
50282;BME280;36176;51.506;10.272;2023-02-14T01:05:35;101514.25;;;-1.56;100.00
50282;BME280;36176;51.506;10.272;2023-02-14T01:08:03;101526.94;;;-1.65;100.00
50282;BME280;36176;51.506;10.272;2023-02-14T01:10:30;101515.50;;;-1.71;100.00
50282;BME280;36176;51.506;10.272;2023-02-14T01:12:57;101519.81;;;-1.71;100.00
50282;BME280;36176;51.506;10.272;2023-02-14T01:15:24;101517.16;;;-1.73;100.00
50282;BME280;36176;51.506;10.272;2023-02-14T01:17:50;101515.16;;;-1.80;100.00
50282;BME280;36176;51.506;10.272;2023-02-14T01:20:17;101514.72;;;-1.92;100.00
50282;BME280;36176;51.506;10.272;2023-02-14T01:22:45;101509.44;;;-1.95;100.00
50282;BME280;36176;51.506;10.272;2023-02-14T01:25:11;101512.13;;;-1.92;100.00
50282;BME280;36176;51.506;10.272;2023-02-14T01:27:38;101515.66;;;-1.90;100.00
50282;BME280;36176;51.506;10.272;2023-02-14T01:30:06;101518.38;;;-1.87;100.00
50282;BME280;36176;51.506;10.272;2023-02-14T01:32:33;101514.09;;;-1.86;100.00
50282;BME280;36176;51.506;10.272;2023-02-14T01:35:00;101507.16;;;-1.86;100.00
50282;BME280;36176;51.506;10.272;2023-02-14T01:37:29;101505.38;;;-1.87;100.00
50282;BME280;36176;51.506;10.272;2023-02-14T01:39:56;101516.38;;;-1.94;100.00
50282;BME280;36176;51.506;10.272;2023-02-14T01:42:23;101512.03;;;-1.95;100.00
50282;BME280;36176;51.506;10.272;2023-02-14T01:44:56;101511.16;;;-1.96;100.00
50282;BME280;36176;51.506;10.272;2023-02-14T01:47:26;101511.97;;;-1.97;100.00
50282;BME280;36176;51.506;10.272;2023-02-14T01:50:02;101517.22;;;-1.95;100.00
50282;BME280;36176;51.506;10.272;2023-02-14T01:52:34;101519.13;;;-1.91;100.00
50282;BME280;36176;51.506;10.272;2023-02-14T01:55:09;101521.81;;;-1.88;100.00
50282;BME280;36176;51.506;10.272;2023-02-14T01:58:22;101512.38;;;-1.86;100.00
50282;BME280;36176;51.506;10.272;2023-02-14T02:00:40;101516.72;;;-1.85;100.00
50282;BME280;36176;51.506;10.272;2023-02-14T02:03:33;101520.97;;;-1.87;100.00
50282;BME280;36176;51.506;10.272;2023-02-14T02:06:19;101520.00;;;-1.90;100.00
50282;BME280;36176;51.506;10.272;2023-02-14T02:08:58;101520.06;;;-1.89;100.00
50282;BME280;36176;51.506;10.272;2023-02-14T02:11:28;101518.28;;;-1.90;100.00
50282;BME280;36176;51.506;10.272;2023-02-14T02:13:56;101519.13;;;-1.91;100.00
50282;BME280;36176;51.506;10.272;2023-02-14T02:16:27;101519.13;;;-1.91;100.00
50282;BME280;36176;51.506;10.272;2023-02-14T02:22:03;101502.47;;;-1.96;100.00
50282;BME280;36176;51.506;10.272;2023-02-14T02:28:10;101506.38;;;-2.07;100.00
50282;BME280;36176;51.506;10.272;2023-02-14T02:34:11;101498.25;;;-2.17;100.00
50282;BME280;36176;51.506;10.272;2023-02-14T02:37:20;101498.19;;;-2.18;100.00
50282;BME280;36176;51.506;10.272;2023-02-14T02:40:09;101498.91;;;-2.22;100.00
50282;BME280;36176;51.506;10.272;2023-02-14T02:42:52;101495.38;;;-2.24;100.00
50282;BME280;36176;51.506;10.272;2023-02-14T02:45:39;101491.00;;;-2.25;100.00
50282;BME280;36176;51.506;10.272;2023-02-14T02:48:38;101491.78;;;-2.28;100.00
50282;BME280;36176;51.506;10.272;2023-02-14T02:51:10;101490.00;;;-2.29;100.00
50282;BME280;36176;51.506;10.272;2023-02-14T02:54:03;101489.00;;;-2.32;100.00
50282;BME280;36176;51.506;10.272;2023-02-14T02:56:40;101492.38;;;-2.35;100.00
50282;BME280;36176;51.506;10.272;2023-02-14T02:59:18;101491.38;;;-2.39;100.00
50282;BME280;36176;51.506;10.272;2023-02-14T03:02:11;101493.13;;;-2.38;100.00
50282;BME280;36176;51.506;10.272;2023-02-14T03:04:54;101497.44;;;-2.38;100.00
50282;BME280;36176;51.506;10.272;2023-02-14T03:07:31;101492.38;;;-2.35;100.00
50282;BME280;36176;51.506;10.272;2023-02-14T03:10:19;101494.16;;;-2.34;100.00
50282;BME280;36176;51.506;10.272;2023-02-14T03:19:02;101481.88;;;-2.38;100.00
50282;BME280;36176;51.506;10.272;2023-02-14T03:22:31;101484.41;;;-2.40;100.00
50282;BME280;36176;51.506;10.272;2023-02-14T03:24:50;101482.41;;;-2.47;100.00
50282;BME280;36176;51.506;10.272;2023-02-14T03:27:27;101483.91;;;-2.53;100.00
50282;BME280;36176;51.506;10.272;2023-02-14T03:30:07;101478.72;;;-2.53;100.00
50282;BME280;36176;51.506;10.272;2023-02-14T03:32:48;101481.31;;;-2.53;100.00
50282;BME280;36176;51.506;10.272;2023-02-14T03:35:24;101481.13;;;-2.58;100.00
50282;BME280;36176;51.506;10.272;2023-02-14T03:38:04;101470.41;;;-2.67;100.00
50282;BME280;36176;51.506;10.272;2023-02-14T03:40:39;101474.44;;;-2.74;100.00
50282;BME280;36176;51.506;10.272;2023-02-14T03:43:10;101474.44;;;-2.74;100.00
50282;BME280;36176;51.506;10.272;2023-02-14T03:45:43;101463.13;;;-2.76;100.00
50282;BME280;36176;51.506;10.272;2023-02-14T03:48:13;101466.50;;;-2.79;100.00
50282;BME280;36176;51.506;10.272;2023-02-14T03:50:45;101461.19;;;-2.82;100.00
50282;BME280;36176;51.506;10.272;2023-02-14T03:53:17;101468.91;;;-2.83;100.00
50282;BME280;36176;51.506;10.272;2023-02-14T03:58:31;101462.59;;;-2.90;100.00
50282;BME280;36176;51.506;10.272;2023-02-14T04:01:10;101470.38;;;-2.90;100.00
50282;BME280;36176;51.506;10.272;2023-02-14T04:03:41;101463.31;;;-2.94;100.00
50282;BME280;36176;51.506;10.272;2023-02-14T04:06:08;101462.28;;;-2.97;100.00
50282;BME280;36176;51.506;10.272;2023-02-14T04:08:35;101458.75;;;-3.00;100.00
50282;BME280;36176;51.506;10.272;2023-02-14T04:11:03;101459.59;;;-3.01;100.00
50282;BME280;36176;51.506;10.272;2023-02-14T04:13:31;101457.66;;;-3.06;100.00
50282;BME280;36176;51.506;10.272;2023-02-14T04:15:58;101456.69;;;-3.08;100.00
50282;BME280;36176;51.506;10.272;2023-02-14T04:18:25;101458.25;;;-3.12;100.00
50282;BME280;36176;51.506;10.272;2023-02-14T04:21:10;101459.03;;;-3.14;100.00
50282;BME280;36176;51.506;10.272;2023-02-14T04:23:37;101457.31;;;-3.14;100.00
50282;BME280;36176;51.506;10.272;2023-02-14T04:26:05;101462.66;;;-3.11;100.00
50282;BME280;36176;51.506;10.272;2023-02-14T04:28:32;101454.88;;;-3.11;100.00
50282;BME280;36176;51.506;10.272;2023-02-14T04:31:01;101462.66;;;-3.11;100.00
50282;BME280;36176;51.506;10.272;2023-02-14T04:33:29;101460.94;;;-3.10;100.00
50282;BME280;36176;51.506;10.272;2023-02-14T04:35:58;101462.66;;;-3.11;100.00
50282;BME280;36176;51.506;10.272;2023-02-14T04:38:25;101461.69;;;-3.13;100.00
50282;BME280;36176;51.506;10.272;2023-02-14T04:40:52;101461.56;;;-3.16;100.00
50282;BME280;36176;51.506;10.272;2023-02-14T04:43:19;101457.00;;;-3.22;100.00
50282;BME280;36176;51.506;10.272;2023-02-14T04:45:46;101456.03;;;-3.25;100.00
50282;BME280;36176;51.506;10.272;2023-02-14T04:48:13;101453.47;;;-3.24;100.00
50282;BME280;36176;51.506;10.272;2023-02-14T04:50:40;101454.31;;;-3.25;100.00
50282;BME280;36176;51.506;10.272;2023-02-14T04:53:07;101446.34;;;-3.29;100.00
50282;BME280;36176;51.506;10.272;2023-02-14T04:55:35;101454.88;;;-3.32;100.00
50282;BME280;36176;51.506;10.272;2023-02-14T04:58:01;101442.69;;;-3.34;100.00
50282;BME280;36176;51.506;10.272;2023-02-14T05:00:28;101452.09;;;-3.36;100.00
50282;BME280;36176;51.506;10.272;2023-02-14T05:02:55;101442.56;;;-3.37;100.00
50282;BME280;36176;51.506;10.272;2023-02-14T05:05:22;101442.50;;;-3.39;100.00
50282;BME280;36176;51.506;10.272;2023-02-14T05:07:49;101450.94;;;-3.43;100.00
50282;BME280;36176;51.506;10.272;2023-02-14T05:10:16;101457.94;;;-3.42;100.00
50282;BME280;36176;51.506;10.272;2023-02-14T05:12:43;101460.50;;;-3.42;100.00
50282;BME280;36176;51.506;10.272;2023-02-14T05:15:13;101446.59;;;-3.44;100.00
50282;BME280;36176;51.506;10.272;2023-02-14T05:17:40;101443.84;;;-3.47;100.00
50282;BME280;36176;51.506;10.272;2023-02-14T05:20:07;101449.00;;;-3.49;100.00
50282;BME280;36176;51.506;10.272;2023-02-14T05:22:34;101439.44;;;-3.50;100.00
50282;BME280;36176;51.506;10.272;2023-02-14T05:25:01;101445.53;;;-3.49;100.00
50282;BME280;36176;51.506;10.272;2023-02-14T05:27:28;101442.88;;;-3.51;100.00
50282;BME280;36176;51.506;10.272;2023-02-14T05:29:55;101444.63;;;-3.50;100.00
50282;BME280;36176;51.506;10.272;2023-02-14T05:32:22;101439.41;;;-3.51;100.00
50282;BME280;36176;51.506;10.272;2023-02-14T05:34:49;101436.84;;;-3.50;100.00
50282;BME280;36176;51.506;10.272;2023-02-14T05:37:16;101435.94;;;-3.52;100.00
50282;BME280;36176;51.506;10.272;2023-02-14T05:39:43;101436.72;;;-3.53;100.00
50282;BME280;36176;51.506;10.272;2023-02-14T05:42:10;101434.81;;;-3.57;100.00
50282;BME280;36176;51.506;10.272;2023-02-14T05:44:37;101443.44;;;-3.58;100.00
50282;BME280;36176;51.506;10.272;2023-02-14T05:47:04;101438.94;;;-3.62;100.00
50282;BME280;36176;51.506;10.272;2023-02-14T05:49:31;101439.56;;;-3.68;100.00
50282;BME280;36176;51.506;10.272;2023-02-14T05:51:58;101445.44;;;-3.72;100.00
50282;BME280;36176;51.506;10.272;2023-02-14T05:54:25;101447.06;;;-3.74;100.00
50282;BME280;36176;51.506;10.272;2023-02-14T05:56:52;101444.47;;;-3.74;100.00
50282;BME280;36176;51.506;10.272;2023-02-14T05:59:19;101445.31;;;-3.75;100.00
50282;BME280;36176;51.506;10.272;2023-02-14T06:01:46;101445.19;;;-3.78;100.00
50282;BME280;36176;51.506;10.272;2023-02-14T06:04:13;101438.09;;;-3.82;100.00
50282;BME280;36176;51.506;10.272;2023-02-14T06:06:40;101436.28;;;-3.85;100.00
50282;BME280;36176;51.506;10.272;2023-02-14T06:09:07;101436.16;;;-3.88;100.00
50282;BME280;36176;51.506;10.272;2023-02-14T06:11:34;101440.44;;;-3.88;100.00
50282;BME280;36176;51.506;10.272;2023-02-14T06:14:07;101444.72;;;-3.89;100.00
50282;BME280;36176;51.506;10.272;2023-02-14T06:16:34;101447.38;;;-3.87;100.00
50282;BME280;36176;51.506;10.272;2023-02-14T06:19:01;101452.50;;;-3.89;100.00
50282;BME280;36176;51.506;10.272;2023-02-14T06:21:28;101455.91;;;-3.90;100.00
50282;BME280;36176;51.506;10.272;2023-02-14T06:23:55;101457.56;;;-3.92;100.00
50282;BME280;36176;51.506;10.272;2023-02-14T06:26:22;101448.91;;;-3.92;100.00
50282;BME280;36176;51.506;10.272;2023-02-14T06:28:54;101440.22;;;-3.93;100.00
50282;BME280;36176;51.506;10.272;2023-02-14T06:31:22;101436.75;;;-3.93;100.00
50282;BME280;36176;51.506;10.272;2023-02-14T06:33:50;101444.41;;;-3.96;100.00
50282;BME280;36176;51.506;10.272;2023-02-14T06:36:18;101450.47;;;-3.96;100.00
50282;BME280;36176;51.506;10.272;2023-02-14T06:38:45;101453.81;;;-3.98;100.00
50282;BME280;36176;51.506;10.272;2023-02-14T06:41:14;101457.28;;;-3.98;100.00
50282;BME280;36176;51.506;10.272;2023-02-14T06:43:44;101459.09;;;-3.95;100.00
50282;BME280;36176;51.506;10.272;2023-02-14T06:46:11;101459.25;;;-3.92;100.00
50282;BME280;36176;51.506;10.272;2023-02-14T06:48:38;101469.75;;;-3.89;100.00
50282;BME280;36176;51.506;10.272;2023-02-14T06:51:05;101465.44;;;-3.89;100.00
50282;BME280;36176;51.506;10.272;2023-02-14T06:53:32;101462.97;;;-3.86;100.00
50282;BME280;36176;51.506;10.272;2023-02-14T06:55:59;101458.00;;;-3.81;100.00
50282;BME280;36176;51.506;10.272;2023-02-14T06:58:26;101475.53;;;-3.75;100.00
50282;BME280;36176;51.506;10.272;2023-02-14T07:00:55;101458.28;;;-3.75;100.00
50282;BME280;36176;51.506;10.272;2023-02-14T07:03:24;101461.75;;;-3.74;100.00
50282;BME280;36176;51.506;10.272;2023-02-14T07:05:52;101462.06;;;-3.67;100.00
50282;BME280;36176;51.506;10.272;2023-02-14T07:08:20;101461.56;;;-3.58;100.00
50282;BME280;36176;51.506;10.272;2023-02-14T07:10:47;101456.81;;;-3.47;100.00
50282;BME280;36176;51.506;10.272;2023-02-14T07:13:14;101458.84;;;-3.40;100.00
50282;BME280;36176;51.506;10.272;2023-02-14T07:15:46;101462.72;;;-3.30;100.00
50282;BME280;36176;51.506;10.272;2023-02-14T07:18:13;101459.56;;;-3.23;99.94
50282;BME280;36176;51.506;10.272;2023-02-14T07:20:44;101460.63;;;-3.18;99.95
50282;BME280;36176;51.506;10.272;2023-02-14T07:23:11;101456.69;;;-3.08;100.00
50282;BME280;36176;51.506;10.272;2023-02-14T07:25:39;101456.22;;;-2.98;100.00
50282;BME280;36176;51.506;10.272;2023-02-14T07:28:12;101452.97;;;-2.92;99.98
50282;BME280;36176;51.506;10.272;2023-02-14T07:30:40;101445.56;;;-2.83;99.68
50282;BME280;36176;51.506;10.272;2023-02-14T07:33:07;101445.91;;;-2.74;99.30
50282;BME280;36176;51.506;10.272;2023-02-14T07:35:34;101457.53;;;-2.64;99.17
50282;BME280;36176;51.506;10.272;2023-02-14T07:38:01;101452.69;;;-2.55;99.61
50282;BME280;36176;51.506;10.272;2023-02-14T07:40:28;101459.00;;;-2.48;99.34
50282;BME280;36176;51.506;10.272;2023-02-14T07:42:57;101451.38;;;-2.44;99.45
50282;BME280;36176;51.506;10.272;2023-02-14T07:45:25;101449.28;;;-2.30;99.35
50282;BME280;36176;51.506;10.272;2023-02-14T07:47:53;101452.44;;;-2.15;98.93
50282;BME280;36176;51.506;10.272;2023-02-14T07:50:22;101451.72;;;-1.61;98.90
50282;BME280;36176;51.506;10.272;2023-02-14T07:52:49;101448.63;;;-1.23;98.73
50282;BME280;36176;51.506;10.272;2023-02-14T07:55:16;101444.13;;;-0.73;97.46
50282;BME280;36176;51.506;10.272;2023-02-14T07:57:47;101444.53;;;-0.29;96.03
50282;BME280;36176;51.506;10.272;2023-02-14T08:00:14;101450.13;;;-0.15;95.36
50282;BME280;36176;51.506;10.272;2023-02-14T08:02:41;101444.72;;;0.09;93.69
50282;BME280;36176;51.506;10.272;2023-02-14T08:05:08;101445.22;;;0.27;92.93
50282;BME280;36176;51.506;10.272;2023-02-14T08:07:38;101436.84;;;0.40;92.00
50282;BME280;36176;51.506;10.272;2023-02-14T08:10:05;101445.31;;;0.65;92.68
50282;BME280;36176;51.506;10.272;2023-02-14T08:12:32;101450.13;;;0.84;90.98
50282;BME280;36176;51.506;10.272;2023-02-14T08:15:17;101446.75;;;1.26;89.80
50282;BME280;36176;51.506;10.272;2023-02-14T08:18:03;101447.78;;;2.20;89.74
50282;BME280;36176;51.506;10.272;2023-02-14T08:20:31;101443.97;;;3.06;85.94
50282;BME280;36176;51.506;10.272;2023-02-14T08:22:58;101441.34;;;3.68;82.83
50282;BME280;36176;51.506;10.272;2023-02-14T08:25:27;101450.38;;;3.92;81.92
50282;BME280;36176;51.506;10.272;2023-02-14T08:27:55;101442.91;;;4.27;80.33
50282;BME280;36176;51.506;10.272;2023-02-14T08:30:22;101441.72;;;4.94;78.63
50282;BME280;36176;51.506;10.272;2023-02-14T08:32:50;101447.09;;;5.10;77.55
50282;BME280;36176;51.506;10.272;2023-02-14T08:35:17;101445.50;;;5.39;76.75
50282;BME280;36176;51.506;10.272;2023-02-14T08:37:44;101434.34;;;5.87;75.61
50282;BME280;36176;51.506;10.272;2023-02-14T08:40:11;101438.03;;;6.60;73.69
50282;BME280;36176;51.506;10.272;2023-02-14T08:42:41;101430.97;;;7.14;69.62
50282;BME280;36176;51.506;10.272;2023-02-14T08:45:09;101439.63;;;7.67;69.04
50282;BME280;36176;51.506;10.272;2023-02-14T08:47:36;101427.09;;;8.06;67.59
50282;BME280;36176;51.506;10.272;2023-02-14T08:50:06;101433.84;;;8.55;66.84
50282;BME280;36176;51.506;10.272;2023-02-14T08:52:33;101434.56;;;8.78;65.44
50282;BME280;36176;51.506;10.272;2023-02-14T08:55:00;101431.72;;;9.03;65.00
50282;BME280;36176;51.506;10.272;2023-02-14T08:57:28;101425.97;;;9.46;63.61
50282;BME280;36176;51.506;10.272;2023-02-14T08:59:55;101425.63;;;9.75;60.27
50282;BME280;36176;51.506;10.272;2023-02-14T09:02:22;101414.41;;;10.19;62.79
50282;BME280;36176;51.506;10.272;2023-02-14T09:04:49;101420.69;;;10.73;61.51
50282;BME280;36176;51.506;10.272;2023-02-14T09:07:16;101417.22;;;11.17;59.88
50282;BME280;36176;51.506;10.272;2023-02-14T09:09:43;58343.00;;;-145.31;100.00
50282;BME280;36176;51.506;10.272;2023-02-14T09:12:12;58343.00;;;-145.31;100.00
50282;BME280;36176;51.506;10.272;2023-02-14T09:14:42;101417.22;;;11.17;59.88
50282;BME280;36176;51.506;10.272;2023-02-14T09:17:12;101415.16;;;12.56;100.00
50282;BME280;36176;51.506;10.272;2023-02-14T09:19:39;58343.00;;;-145.31;100.00
50282;BME280;36176;51.506;10.272;2023-02-14T09:22:07;58343.00;;;-145.31;100.00
50282;BME280;36176;51.506;10.272;2023-02-14T09:24:36;58343.00;;;-145.31;100.00
50282;BME280;36176;51.506;10.272;2023-02-14T09:27:04;58343.00;;;-145.31;100.00
50282;BME280;36176;51.506;10.272;2023-02-14T09:29:31;58343.00;;;-145.31;100.00
50282;BME280;36176;51.506;10.272;2023-02-14T09:32:00;58343.00;;;-145.31;100.00
50282;BME280;36176;51.506;10.272;2023-02-14T09:34:28;58343.00;;;-145.31;100.00
50282;BME280;36176;51.506;10.272;2023-02-14T09:36:55;58343.00;;;-145.31;100.00
50282;BME280;36176;51.506;10.272;2023-02-14T09:39:41;58343.00;;;-145.31;100.00
50282;BME280;36176;51.506;10.272;2023-02-14T09:42:32;58343.00;;;-145.31;100.00
50282;BME280;36176;51.506;10.272;2023-02-14T09:45:11;58343.00;;;-145.31;100.00
50282;BME280;36176;51.506;10.272;2023-02-14T09:50:14;58343.00;;;-145.31;100.00
50282;BME280;36176;51.506;10.272;2023-02-14T09:52:46;58343.00;;;-145.31;100.00
50282;BME280;36176;51.506;10.272;2023-02-14T09:55:15;58343.00;;;-145.31;100.00
50282;BME280;36176;51.506;10.272;2023-02-14T10:00:36;58343.00;;;-145.31;100.00
50282;BME280;36176;51.506;10.272;2023-02-14T10:05:53;58343.00;;;-145.31;100.00
50282;BME280;36176;51.506;10.272;2023-02-14T10:08:31;58343.00;;;-145.31;100.00
50282;BME280;36176;51.506;10.272;2023-02-14T10:11:08;58343.00;;;-145.31;100.00
50282;BME280;36176;51.506;10.272;2023-02-14T10:14:10;58343.00;;;-145.31;100.00
50282;BME280;36176;51.506;10.272;2023-02-14T10:22:44;58343.00;;;-145.31;100.00
50282;BME280;36176;51.506;10.272;2023-02-14T10:25:20;58343.00;;;-145.31;100.00
50282;BME280;36176;51.506;10.272;2023-02-14T10:27:49;58343.00;;;-145.31;100.00
50282;BME280;36176;51.506;10.272;2023-02-14T10:30:21;58343.00;;;-145.31;100.00
50282;BME280;36176;51.506;10.272;2023-02-14T10:33:02;58343.00;;;-145.31;100.00
50282;BME280;36176;51.506;10.272;2023-02-14T10:35:50;58343.00;;;-145.31;100.00
50282;BME280;36176;51.506;10.272;2023-02-14T10:52:47;58343.00;;;-145.31;100.00
50282;BME280;36176;51.506;10.272;2023-02-14T10:58:01;58343.00;;;-145.31;100.00
50282;BME280;36176;51.506;10.272;2023-02-14T11:00:33;58343.00;;;-145.31;100.00
50282;BME280;36176;51.506;10.272;2023-02-14T11:03:04;58343.00;;;-145.31;100.00
50282;BME280;36176;51.506;10.272;2023-02-14T11:05:40;58343.00;;;-145.31;100.00
50282;BME280;36176;51.506;10.272;2023-02-14T11:08:33;58343.00;;;-145.31;100.00
50282;BME280;36176;51.506;10.272;2023-02-14T11:11:12;58343.00;;;-145.31;100.00
50282;BME280;36176;51.506;10.272;2023-02-14T11:13:42;58343.00;;;-145.31;100.00
50282;BME280;36176;51.506;10.272;2023-02-14T11:16:11;58343.00;;;-145.31;100.00
50282;BME280;36176;51.506;10.272;2023-02-14T11:18:40;58343.00;;;-145.31;100.00
50282;BME280;36176;51.506;10.272;2023-02-14T11:21:12;58343.00;;;-145.31;100.00
50282;BME280;36176;51.506;10.272;2023-02-14T11:23:43;58343.00;;;-145.31;100.00
50282;BME280;36176;51.506;10.272;2023-02-14T11:26:14;58343.00;;;-145.31;100.00
50282;BME280;36176;51.506;10.272;2023-02-14T11:28:49;58343.00;;;-145.31;100.00
50282;BME280;36176;51.506;10.272;2023-02-14T11:31:43;58343.00;;;-145.31;100.00
50282;BME280;36176;51.506;10.272;2023-02-14T11:34:31;58343.00;;;-145.31;100.00
50282;BME280;36176;51.506;10.272;2023-02-14T11:36:59;58343.00;;;-145.31;100.00
50282;BME280;36176;51.506;10.272;2023-02-14T11:39:32;58343.00;;;-145.31;100.00
50282;BME280;36176;51.506;10.272;2023-02-14T11:42:03;58343.00;;;-145.31;100.00
50282;BME280;36176;51.506;10.272;2023-02-14T11:44:33;58343.00;;;-145.31;100.00
50282;BME280;36176;51.506;10.272;2023-02-14T11:47:18;58343.00;;;-145.31;100.00
50282;BME280;36176;51.506;10.272;2023-02-14T11:49:57;58343.00;;;-145.31;100.00
50282;BME280;36176;51.506;10.272;2023-02-14T11:52:24;58343.00;;;-145.31;100.00
50282;BME280;36176;51.506;10.272;2023-02-14T11:54:56;58343.00;;;-145.31;100.00
50282;BME280;36176;51.506;10.272;2023-02-14T11:57:34;58343.00;;;-145.31;100.00
50282;BME280;36176;51.506;10.272;2023-02-14T12:00:14;58343.00;;;-145.31;100.00
50282;BME280;36176;51.506;10.272;2023-02-14T12:02:44;58343.00;;;-145.31;100.00
50282;BME280;36176;51.506;10.272;2023-02-14T12:05:30;58343.00;;;-145.31;100.00
50282;BME280;36176;51.506;10.272;2023-02-14T12:08:01;58343.00;;;-145.31;100.00
50282;BME280;36176;51.506;10.272;2023-02-14T12:10:33;58343.00;;;-145.31;100.00
50282;BME280;36176;51.506;10.272;2023-02-14T12:26:26;58343.00;;;-145.31;100.00
50282;BME280;36176;51.506;10.272;2023-02-14T12:31:29;58343.00;;;-145.31;100.00
50282;BME280;36176;51.506;10.272;2023-02-14T12:33:57;58343.00;;;-145.31;100.00
50282;BME280;36176;51.506;10.272;2023-02-14T12:37:03;58343.00;;;-145.31;100.00
50282;BME280;36176;51.506;10.272;2023-02-14T12:40:02;58343.00;;;-145.31;100.00
50282;BME280;36176;51.506;10.272;2023-02-14T12:42:52;58343.00;;;-145.31;100.00
50282;BME280;36176;51.506;10.272;2023-02-14T12:51:07;58343.00;;;-145.31;100.00
50282;BME280;36176;51.506;10.272;2023-02-14T13:01:59;58343.00;;;-145.31;100.00
50282;BME280;36176;51.506;10.272;2023-02-14T13:04:51;58343.00;;;-145.31;100.00
50282;BME280;36176;51.506;10.272;2023-02-14T13:13:30;58343.00;;;-145.31;100.00
50282;BME280;36176;51.506;10.272;2023-02-14T13:16:14;58343.00;;;-145.31;100.00
50282;BME280;36176;51.506;10.272;2023-02-14T13:18:56;58343.00;;;-145.31;100.00
50282;BME280;36176;51.506;10.272;2023-02-14T13:21:28;58343.00;;;-145.31;100.00
50282;BME280;36176;51.506;10.272;2023-02-14T13:24:10;58343.00;;;-145.31;100.00
50282;BME280;36176;51.506;10.272;2023-02-14T13:26:40;58343.00;;;-145.31;100.00
50282;BME280;36176;51.506;10.272;2023-02-14T13:29:12;58343.00;;;-145.31;100.00
50282;BME280;36176;51.506;10.272;2023-02-14T13:31:42;58343.00;;;-145.31;100.00
50282;BME280;36176;51.506;10.272;2023-02-14T13:34:27;58343.00;;;-145.31;100.00
50282;BME280;36176;51.506;10.272;2023-02-14T13:36:58;58343.00;;;-145.31;100.00
50282;BME280;36176;51.506;10.272;2023-02-14T13:39:39;58343.00;;;-145.31;100.00
50282;BME280;36176;51.506;10.272;2023-02-14T13:42:09;58343.00;;;-145.31;100.00
50282;BME280;36176;51.506;10.272;2023-02-14T13:44:45;58343.00;;;-145.31;100.00
50282;BME280;36176;51.506;10.272;2023-02-14T13:47:21;58343.00;;;-145.31;100.00
50282;BME280;36176;51.506;10.272;2023-02-14T13:49:55;58343.00;;;-145.31;100.00
50282;BME280;36176;51.506;10.272;2023-02-14T13:52:45;58343.00;;;-145.31;100.00
50282;BME280;36176;51.506;10.272;2023-02-14T13:55:21;58343.00;;;-145.31;100.00
50282;BME280;36176;51.506;10.272;2023-02-14T13:58:04;58343.00;;;-145.31;100.00
50282;BME280;36176;51.506;10.272;2023-02-14T14:00:37;58343.00;;;-145.31;100.00
50282;BME280;36176;51.506;10.272;2023-02-14T14:08:40;58343.00;;;-145.31;100.00
50282;BME280;36176;51.506;10.272;2023-02-14T14:13:54;58343.00;;;-145.31;100.00
50282;BME280;36176;51.506;10.272;2023-02-14T14:19:09;58343.00;;;-145.31;100.00
50282;BME280;36176;51.506;10.272;2023-02-14T14:22:02;58343.00;;;-145.31;100.00
50282;BME280;36176;51.506;10.272;2023-02-14T14:24:32;58343.00;;;-145.31;100.00
50282;BME280;36176;51.506;10.272;2023-02-14T14:27:12;58343.00;;;-145.31;100.00
50282;BME280;36176;51.506;10.272;2023-02-14T14:29:53;58343.00;;;-145.31;100.00
50282;BME280;36176;51.506;10.272;2023-02-14T14:35:05;58343.00;;;-145.31;100.00